Time;durP1;ratioP1;P1;durP2;ratioP2;P2;SDS_P1;SDS_P2;PMS_P1;PMS_P2;Temp;Humidity;BMP_temperature;BMP_pressure;BME280_temperature;BME280_humidity;BME280_pressure;Samples;Min_cycle;Max_cycle;Signal;HPM_P1;HPM_P2
2020/12/08 00:01:35;;;;;;;29.00;22.02;;;5.20;99.90;;;;;;5125478;28;20202;-80
2020/12/08 00:04:02;;;;;;;28.52;21.63;;;5.20;99.90;;;;;;5125795;28;20232;-80
2020/12/08 00:06:29;;;;;;;23.45;20.50;;;5.20;99.90;;;;;;5125845;28;20246;-80
2020/12/08 00:08:55;;;;;;;24.48;19.65;;;5.30;99.90;;;;;;5125711;28;20225;-81
2020/12/08 00:11:22;;;;;;;27.00;21.55;;;5.30;99.90;;;;;;5126683;28;20202;-79
2020/12/08 00:13:49;;;;;;;24.45;20.35;;;5.30;99.90;;;;;;5127591;28;20209;-80
2020/12/08 00:16:15;;;;;;;29.05;21.33;;;5.30;99.90;;;;;;5126405;28;20223;-79
2020/12/08 00:18:42;;;;;;;23.10;20.15;;;5.30;99.90;;;;;;5128647;28;20213;-80
2020/12/08 00:21:08;;;;;;;26.33;21.23;;;5.30;99.90;;;;;;5127716;28;20198;-80
2020/12/08 00:23:35;;;;;;;21.98;18.05;;;5.30;99.90;;;;;;5135550;28;20239;-81
2020/12/08 00:26:01;;;;;;;22.73;18.30;;;5.30;99.90;;;;;;5127838;28;20266;-81
2020/12/08 00:28:29;;;;;;;20.60;17.77;;;5.30;99.90;;;;;;5125885;28;20225;-79
2020/12/08 00:30:55;;;;;;;20.60;18.48;;;5.30;99.90;;;;;;5124856;28;20227;-80
2020/12/08 00:33:22;;;;;;;21.67;19.08;;;5.30;99.90;;;;;;5127153;28;20205;-81
2020/12/08 00:35:48;;;;;;;17.88;15.95;;;5.30;99.90;;;;;;5135506;28;20227;-81
2020/12/08 00:38:15;;;;;;;23.63;18.90;;;5.20;99.90;;;;;;5125983;28;20351;-80
2020/12/08 00:40:41;;;;;;;22.73;20.27;;;5.20;99.90;;;;;;5126013;28;20208;-80
2020/12/08 00:43:08;;;;;;;23.20;19.30;;;5.20;99.90;;;;;;5125257;28;20197;-80
2020/12/08 00:45:35;;;;;;;23.73;18.95;;;5.10;99.90;;;;;;5125171;28;20213;-80
2020/12/08 00:48:02;;;;;;;22.40;19.17;;;5.00;99.90;;;;;;5128100;28;20251;-80
2020/12/08 00:50:28;;;;;;;26.85;20.55;;;5.00;99.90;;;;;;5129246;28;20266;-79
2020/12/08 00:52:55;;;;;;;25.88;21.23;;;4.90;99.90;;;;;;5128869;28;20205;-80
2020/12/08 00:55:21;;;;;;;21.88;19.50;;;4.80;99.90;;;;;;5129469;28;20205;-80
2020/12/08 00:57:48;;;;;;;24.98;20.23;;;4.80;99.90;;;;;;5129529;28;20197;-80
2020/12/08 01:00:14;;;;;;;24.90;20.92;;;4.90;99.90;;;;;;5130681;28;20205;-80
2020/12/08 01:02:42;;;;;;;28.92;22.02;;;4.90;99.90;;;;;;5140948;27;20219;-80
2020/12/08 01:05:11;;;;;;;20.65;18.25;;;4.80;99.90;;;;;;5136184;27;20216;-81
2020/12/08 01:07:38;;;;;;;20.17;17.65;;;4.80;99.90;;;;;;5131706;28;20263;-80
2020/12/08 01:10:04;;;;;;;22.42;20.02;;;4.90;99.90;;;;;;5130435;28;20273;-80
2020/12/08 01:12:31;;;;;;;21.40;18.30;;;4.90;99.90;;;;;;5130968;28;20651;-79
2020/12/08 01:14:57;;;;;;;20.00;17.25;;;4.90;99.90;;;;;;5130553;28;20190;-80
2020/12/08 01:17:24;;;;;;;27.80;19.70;;;4.80;99.90;;;;;;5130462;28;20213;-80
2020/12/08 01:19:52;;;;;;;22.20;18.77;;;4.80;99.90;;;;;;5131223;28;20205;-79
2020/12/08 01:22:18;;;;;;;21.83;18.77;;;4.80;99.90;;;;;;5130912;28;20228;-80
2020/12/08 01:24:45;;;;;;;22.25;18.08;;;4.80;99.90;;;;;;5129419;28;20227;-81
2020/12/08 01:27:11;;;;;;;20.33;17.73;;;4.80;99.90;;;;;;5136250;27;20244;-79
2020/12/08 01:29:38;;;;;;;20.70;17.63;;;4.80;99.90;;;;;;5141244;27;20174;-77
2020/12/08 01:32:05;;;;;;;19.48;17.38;;;4.80;99.90;;;;;;5141464;27;20186;-79
2020/12/08 01:34:32;;;;;;;21.33;18.48;;;4.80;99.90;;;;;;5141226;27;20223;-78
2020/12/08 01:37:01;;;;;;;24.10;19.38;;;4.80;99.90;;;;;;5141392;27;20186;-80
2020/12/08 01:39:27;;;;;;;18.10;16.17;;;4.90;99.90;;;;;;5141059;27;20249;-76
2020/12/08 01:41:55;;;;;;;23.30;18.92;;;4.80;99.90;;;;;;5140625;27;20181;-80
2020/12/08 01:44:22;;;;;;;21.25;18.02;;;4.60;99.90;;;;;;5138538;28;20201;-77
2020/12/08 01:46:49;;;;;;;26.95;21.55;;;4.70;99.90;;;;;;5140995;27;20219;-79
2020/12/08 01:49:16;;;;;;;23.70;20.05;;;4.60;99.90;;;;;;5140557;27;20206;-77
2020/12/08 01:51:43;;;;;;;24.80;20.65;;;4.60;99.90;;;;;;5135061;28;20198;-78
2020/12/08 01:54:12;;;;;;;20.92;18.25;;;4.60;99.90;;;;;;5131434;28;20198;-78
2020/12/08 01:56:38;;;;;;;24.13;20.50;;;4.60;99.90;;;;;;5136745;27;20190;-78
2020/12/08 01:59:06;;;;;;;24.85;20.05;;;4.60;99.90;;;;;;5140421;27;20210;-80
2020/12/08 02:01:33;;;;;;;24.08;20.35;;;4.50;99.90;;;;;;5140478;27;20197;-78
2020/12/08 02:04:00;;;;;;;26.70;22.70;;;4.50;99.90;;;;;;5140183;27;20188;-78
2020/12/08 02:06:30;;;;;;;28.10;22.05;;;4.40;99.90;;;;;;5132328;27;20209;-78
2020/12/08 02:08:58;;;;;;;24.92;20.80;;;4.30;99.90;;;;;;5155743;22;20226;-86
2020/12/08 02:11:25;;;;;;;25.20;20.77;;;4.40;99.90;;;;;;5128725;28;20202;-86
2020/12/08 02:13:52;;;;;;;25.02;19.98;;;4.40;99.90;;;;;;5128090;28;20255;-85
2020/12/08 02:16:21;;;;;;;22.65;19.75;;;4.30;99.90;;;;;;5108406;28;20209;-86
2020/12/08 02:18:47;;;;;;;22.83;18.70;;;4.40;99.90;;;;;;5106569;28;20701;-86
2020/12/08 02:21:16;;;;;;;23.02;19.25;;;4.40;99.90;;;;;;5106136;28;20622;-85
2020/12/08 02:23:50;;;;;;;23.30;19.63;;;4.40;99.90;;;;;;5106411;28;20213;-87
2020/12/08 02:26:17;;;;;;;23.80;20.50;;;4.50;99.90;;;;;;5106261;28;20343;-85
2020/12/08 02:28:44;;;;;;;25.60;19.98;;;4.60;99.90;;;;;;5105989;28;20226;-86
2020/12/08 02:31:11;;;;;;;20.17;17.95;;;4.50;99.90;;;;;;5105496;28;20210;-87
2020/12/08 02:33:38;;;;;;;24.75;19.10;;;4.60;99.90;;;;;;5106169;28;20288;-84
2020/12/08 02:36:05;;;;;;;21.50;18.90;;;4.60;99.90;;;;;;5088495;28;20206;-87
2020/12/08 02:38:33;;;;;;;22.23;19.83;;;4.70;99.90;;;;;;5106809;28;20293;-86
2020/12/08 02:41:01;;;;;;;23.38;18.77;;;4.70;99.90;;;;;;5108965;28;20228;-87
2020/12/08 02:43:28;;;;;;;21.98;18.77;;;4.80;99.90;;;;;;5109612;28;20270;-85
2020/12/08 02:45:56;;;;;;;20.48;17.85;;;4.80;99.90;;;;;;5108882;28;20289;-86
2020/12/08 02:48:23;;;;;;;21.42;18.55;;;5.00;99.90;;;;;;5107241;28;20253;-85
2020/12/08 02:50:50;;;;;;;21.65;18.05;;;5.00;99.90;;;;;;5105892;28;20290;-85
2020/12/08 02:53:17;;;;;;;15.20;13.60;;;5.10;99.90;;;;;;5105896;28;20210;-86
2020/12/08 02:55:50;;;;;;;18.27;16.15;;;5.20;99.90;;;;;;5104684;28;20208;-85
2020/12/08 02:58:17;;;;;;;20.27;15.90;;;5.20;99.90;;;;;;5105473;28;20222;-85
2020/12/08 03:00:44;;;;;;;17.85;16.02;;;5.30;99.90;;;;;;5104270;28;20605;-86
2020/12/08 03:03:11;;;;;;;16.92;15.02;;;5.30;99.90;;;;;;5104924;28;20210;-86
2020/12/08 03:05:39;;;;;;;22.65;17.27;;;5.50;99.90;;;;;;5108491;28;20234;-85
2020/12/08 03:08:05;;;;;;;21.10;18.25;;;5.50;99.90;;;;;;5106251;28;20244;-85
2020/12/08 03:10:32;;;;;;;18.08;16.10;;;5.50;99.90;;;;;;5107527;28;20228;-86
2020/12/08 03:13:01;;;;;;;19.38;15.00;;;5.50;99.90;;;;;;5109203;28;20228;-85
2020/12/08 03:15:28;;;;;;;24.92;18.48;;;5.60;99.90;;;;;;5081924;28;20724;-86
2020/12/08 03:17:55;;;;;;;28.75;20.52;;;5.60;99.90;;;;;;5100634;28;20222;-86
2020/12/08 03:20:27;;;;;;;31.30;21.00;;;5.50;99.90;;;;;;5104250;28;20220;-86
2020/12/08 03:22:54;;;;;;;26.98;19.17;;;5.40;99.90;;;;;;5104175;28;20195;-87
2020/12/08 03:25:25;;;;;;;25.60;19.63;;;5.40;99.90;;;;;;5102736;28;20218;-86
2020/12/08 03:27:52;;;;;;;22.25;16.55;;;5.30;99.90;;;;;;5103739;28;20233;-87
2020/12/08 03:30:20;;;;;;;21.15;17.70;;;5.40;99.90;;;;;;5105161;28;20268;-86
2020/12/08 03:32:47;;;;;;;16.92;15.15;;;5.50;99.90;;;;;;5106356;28;20349;-87
2020/12/08 03:35:14;;;;;;;18.55;16.60;;;5.50;99.90;;;;;;5110179;28;20221;-86
2020/12/08 03:37:41;;;;;;;18.25;16.17;;;5.60;99.90;;;;;;5111328;28;20202;-87
2020/12/08 03:40:08;;;;;;;17.58;15.68;;;5.70;99.90;;;;;;5111189;28;20210;-85
2020/12/08 03:42:35;;;;;;;15.23;13.63;;;5.70;99.90;;;;;;5110548;28;20228;-87
2020/12/08 03:45:02;;;;;;;18.00;16.15;;;5.80;99.90;;;;;;5109877;28;20226;-86
2020/12/08 03:47:31;;;;;;;23.48;15.93;;;5.80;99.90;;;;;;5112343;28;20210;-90
2020/12/08 03:49:58;;;;;;;22.30;17.20;;;5.80;99.90;;;;;;5114677;28;20198;-87
2020/12/08 03:52:25;;;;;;;18.15;16.33;;;5.80;99.90;;;;;;5115624;28;20214;-86
2020/12/08 03:54:52;;;;;;;19.08;15.75;;;5.80;99.90;;;;;;5116023;28;20190;-89
2020/12/08 03:57:20;;;;;;;19.45;16.50;;;5.90;99.90;;;;;;5116791;28;20220;-87
2020/12/08 03:59:47;;;;;;;21.73;16.55;;;5.90;99.90;;;;;;5116765;28;20210;-86
2020/12/08 04:02:26;;;;;;;20.40;17.65;;;5.90;99.90;;;;;;5115738;28;20233;-86
2020/12/08 04:04:53;;;;;;;21.10;17.30;;;5.90;99.90;;;;;;5108695;28;20303;-85
2020/12/08 04:07:20;;;;;;;19.02;15.68;;;5.90;99.90;;;;;;5109975;28;20228;-87
2020/12/08 04:09:47;;;;;;;18.75;16.50;;;6.00;99.90;;;;;;5103083;28;20233;-86
2020/12/08 04:12:14;;;;;;;17.17;15.38;;;5.90;99.90;;;;;;5102649;28;20273;-86
2020/12/08 04:14:41;;;;;;;19.95;17.70;;;6.00;99.90;;;;;;5101476;28;20220;-85
2020/12/08 04:17:08;;;;;;;18.30;15.60;;;6.00;99.90;;;;;;5101871;28;20206;-87
2020/12/08 04:19:35;;;;;;;17.45;15.35;;;6.00;99.90;;;;;;5102025;28;20250;-86
2020/12/08 04:22:03;;;;;;;17.67;15.77;;;6.00;99.90;;;;;;5105376;28;20292;-87
2020/12/08 04:24:30;;;;;;;19.58;16.13;;;6.10;99.90;;;;;;5107326;28;20256;-85
2020/12/08 04:26:58;;;;;;;22.60;18.65;;;6.10;99.90;;;;;;5112954;28;20228;-86
2020/12/08 04:29:26;;;;;;;17.92;15.73;;;6.10;99.90;;;;;;5112679;28;20251;-85
2020/12/08 04:31:53;;;;;;;19.42;16.92;;;6.10;99.90;;;;;;5119627;28;20205;-88
2020/12/08 04:34:20;;;;;;;20.90;17.88;;;6.10;99.90;;;;;;5113267;28;20266;-85
2020/12/08 04:36:48;;;;;;;15.70;13.45;;;6.00;99.90;;;;;;5106001;28;20202;-86
2020/12/08 04:39:17;;;;;;;18.65;16.48;;;6.10;99.90;;;;;;5106028;28;20235;-86
2020/12/08 04:41:43;;;;;;;18.60;16.60;;;6.10;99.90;;;;;;5105704;28;20289;-84
2020/12/08 04:44:12;;;;;;;23.15;16.48;;;6.20;99.90;;;;;;5105928;28;20214;-86
2020/12/08 04:46:40;;;;;;;19.20;16.30;;;6.20;99.90;;;;;;5106270;28;20309;-86
2020/12/08 04:49:08;;;;;;;19.75;17.17;;;6.20;99.90;;;;;;5105070;28;20579;-86
2020/12/08 04:51:39;;;;;;;23.00;18.90;;;6.20;99.90;;;;;;5105311;28;20198;-86
2020/12/08 04:54:06;;;;;;;18.60;16.60;;;6.20;99.90;;;;;;5107032;28;20227;-86
2020/12/08 04:56:35;;;;;;;20.80;18.42;;;6.30;99.90;;;;;;5107134;28;20205;-87
2020/12/08 04:59:02;;;;;;;20.83;17.67;;;6.30;99.90;;;;;;5106618;28;20277;-86
2020/12/08 05:01:29;;;;;;;20.92;17.25;;;6.40;99.90;;;;;;5108302;28;20253;-88
2020/12/08 05:03:57;;;;;;;20.27;17.42;;;6.40;99.90;;;;;;5120984;28;20218;-90
2020/12/08 05:06:24;;;;;;;22.40;18.95;;;6.50;99.90;;;;;;5121148;28;20194;-89
2020/12/08 05:09:05;;;;;;;19.50;17.08;;;6.50;99.90;;;;;;5120467;28;20301;-86
2020/12/08 05:11:34;;;;;;;20.13;16.73;;;6.50;99.90;;;;;;5121208;28;20186;-88
2020/12/08 05:14:07;;;;;;;21.45;18.27;;;6.50;99.90;;;;;;5121537;28;20226;-89
2020/12/08 05:16:38;;;;;;;19.90;17.80;;;6.40;99.90;;;;;;5120991;28;20187;-89
2020/12/08 05:19:08;;;;;;;23.00;19.90;;;6.50;99.90;;;;;;5121098;28;20206;-89
2020/12/08 05:21:46;;;;;;;22.67;19.35;;;6.40;99.90;;;;;;5121449;28;20209;-89
2020/12/08 05:24:23;;;;;;;20.67;17.30;;;6.40;99.90;;;;;;5120833;28;20212;-87
2020/12/08 05:26:56;;;;;;;24.83;20.85;;;6.30;99.90;;;;;;5114103;28;20256;-85
2020/12/08 05:29:22;;;;;;;19.85;17.02;;;6.30;99.90;;;;;;5108864;28;20313;-86
2020/12/08 05:31:50;;;;;;;20.05;17.88;;;6.20;99.90;;;;;;5107796;28;20206;-84
2020/12/08 05:34:19;;;;;;;22.80;19.42;;;6.20;99.90;;;;;;5104946;28;20229;-85
2020/12/08 05:37:01;;;;;;;22.95;18.90;;;6.10;99.90;;;;;;5106481;28;20214;-86
2020/12/08 05:39:32;;;;;;;20.63;16.65;;;6.00;99.90;;;;;;5104304;28;20231;-85
2020/12/08 05:42:01;;;;;;;18.63;16.67;;;5.90;99.90;;;;;;5086067;28;20206;-86
2020/12/08 05:44:29;;;;;;;21.10;17.27;;;6.00;99.90;;;;;;5084703;28;20226;-86
2020/12/08 05:47:05;;;;;;;21.05;18.65;;;6.00;99.90;;;;;;5085445;28;20218;-88
2020/12/08 05:49:35;;;;;;;22.25;18.73;;;6.00;99.90;;;;;;5086029;28;20234;-88
2020/12/08 05:52:07;;;;;;;20.90;18.70;;;5.90;99.90;;;;;;5085841;28;20199;-86
2020/12/08 05:54:34;;;;;;;26.15;19.02;;;6.00;99.90;;;;;;5098235;28;20198;-88
2020/12/08 05:57:15;;;;;;;22.65;17.92;;;6.00;99.90;;;;;;5104224;28;20502;-88
2020/12/08 05:59:43;;;;;;;20.13;17.38;;;6.00;99.90;;;;;;5104266;28;20690;-88
2020/12/08 06:02:10;;;;;;;26.17;19.67;;;6.00;99.90;;;;;;5103912;28;20215;-88
2020/12/08 06:04:41;;;;;;;23.83;19.42;;;5.90;99.90;;;;;;5085613;28;20710;-89
2020/12/08 06:07:12;;;;;;;23.30;18.80;;;5.90;99.90;;;;;;5102584;28;20265;-85
2020/12/08 06:09:39;;;;;;;26.52;20.52;;;5.90;99.90;;;;;;5104293;28;20234;-89
2020/12/08 06:12:16;;;;;;;21.65;17.52;;;6.00;99.90;;;;;;5101645;28;20243;-87
2020/12/08 06:14:48;;;;;;;22.67;19.02;;;6.00;99.90;;;;;;5101712;28;20229;-87
2020/12/08 06:17:17;;;;;;;23.15;17.95;;;6.00;99.90;;;;;;5103964;28;20222;-88
2020/12/08 06:19:44;;;;;;;22.77;19.92;;;6.00;99.90;;;;;;5102204;28;20234;-86
2020/12/08 06:22:12;;;;;;;24.35;21.10;;;6.10;99.90;;;;;;5102146;28;20572;-87
2020/12/08 06:24:52;;;;;;;22.40;19.67;;;6.00;99.90;;;;;;5109996;28;20207;-85
2020/12/08 06:27:22;;;;;;;20.73;17.75;;;6.20;99.90;;;;;;5105304;28;20651;-87
2020/12/08 06:29:51;;;;;;;21.17;18.13;;;6.20;99.90;;;;;;5102412;28;20644;-87
2020/12/08 06:32:31;;;;;;;21.38;19.17;;;6.20;99.90;;;;;;5100805;28;20206;-87
2020/12/08 06:35:11;;;;;;;22.88;19.80;;;6.30;99.90;;;;;;5079248;28;20206;-87
2020/12/08 06:37:45;;;;;;;23.83;19.50;;;6.30;99.90;;;;;;5116952;28;20281;-84
2020/12/08 06:40:14;;;;;;;22.83;19.63;;;6.30;99.90;;;;;;5106715;28;20210;-85
2020/12/08 06:42:42;;;;;;;23.13;18.13;;;6.30;99.90;;;;;;5102358;28;20214;-86
2020/12/08 06:45:14;;;;;;;21.73;18.98;;;6.40;99.90;;;;;;5100982;28;20650;-85
2020/12/08 06:47:42;;;;;;;23.05;18.98;;;6.40;99.90;;;;;;5103064;28;20270;-86
2020/12/08 06:50:21;;;;;;;23.77;19.20;;;6.30;99.90;;;;;;5102323;28;20214;-86
2020/12/08 06:52:53;;;;;;;20.63;17.13;;;6.30;99.90;;;;;;5087902;28;20749;-85
2020/12/08 06:55:20;;;;;;;22.48;18.42;;;6.30;99.90;;;;;;5110203;28;20206;-87
2020/12/08 06:57:48;;;;;;;19.33;16.85;;;6.30;99.90;;;;;;5116358;28;20205;-87
2020/12/08 07:00:15;;;;;;;21.05;18.65;;;6.30;99.90;;;;;;5117042;28;20211;-89
2020/12/08 07:02:48;;;;;;;19.15;17.10;;;6.40;99.90;;;;;;5115428;28;20213;-85
2020/12/08 07:05:17;;;;;;;21.77;18.70;;;6.40;99.90;;;;;;5102290;28;20205;-87
2020/12/08 07:07:46;;;;;;;20.98;18.58;;;6.40;99.90;;;;;;5104174;28;20198;-87
2020/12/08 07:10:13;;;;;;;21.38;17.45;;;6.40;99.90;;;;;;5104265;28;20331;-87
2020/12/08 07:12:42;;;;;;;19.25;16.70;;;6.40;99.90;;;;;;5103149;28;20215;-85
2020/12/08 07:15:12;;;;;;;21.23;18.70;;;6.40;99.90;;;;;;5101923;28;20535;-85
2020/12/08 07:17:42;;;;;;;20.83;18.45;;;6.40;99.90;;;;;;5104086;28;20214;-85
2020/12/08 07:23:10;;;;;;;21.77;18.45;;;6.40;99.90;;;;;;5110783;22;20249;-69
2020/12/08 07:25:37;;;;;;;21.25;18.10;;;6.30;99.90;;;;;;5090876;28;20198;-69
2020/12/08 07:28:05;;;;;;;22.58;17.58;;;6.30;99.90;;;;;;5075226;28;20210;-72
2020/12/08 07:30:33;;;;;;;23.65;19.77;;;6.30;99.90;;;;;;5093768;28;20221;-69
2020/12/08 07:33:12;;;;;;;20.45;16.70;;;6.30;99.90;;;;;;5113630;28;20198;-69
2020/12/08 07:35:43;;;;;;;21.63;17.85;;;6.30;99.90;;;;;;5111112;28;20194;-70
2020/12/08 07:38:10;;;;;;;20.35;16.83;;;6.40;99.90;;;;;;5113295;28;20209;-70
2020/12/08 07:40:37;;;;;;;21.58;17.75;;;6.40;99.90;;;;;;5108612;28;20275;-69
2020/12/08 07:43:05;;;;;;;20.73;18.52;;;6.40;99.90;;;;;;5111054;28;20285;-75
2020/12/08 07:45:40;;;;;;;22.33;19.33;;;6.40;99.90;;;;;;5112574;28;20657;-71
2020/12/08 07:48:07;;;;;;;21.90;17.67;;;6.30;99.90;;;;;;5113159;28;20217;-72
2020/12/08 07:50:34;;;;;;;19.55;17.02;;;6.30;99.90;;;;;;5112377;28;20703;-72
2020/12/08 07:53:02;;;;;;;23.88;18.58;;;6.20;99.90;;;;;;5101792;28;20239;-71
2020/12/08 07:55:31;;;;;;;23.20;19.65;;;6.20;99.90;;;;;;5092731;28;20211;-71
2020/12/08 07:57:58;;;;;;;22.08;16.30;;;6.20;99.90;;;;;;5092459;28;20206;-71
2020/12/08 08:00:24;;;;;;;22.80;18.50;;;6.10;99.90;;;;;;5092003;28;20226;-71
2020/12/08 08:06:17;;;;;;;25.63;18.20;;;6.00;99.90;;;;;;5092625;28;20250;-72
2020/12/08 08:08:52;;;;;;;19.52;15.88;;;6.00;99.90;;;;;;5114900;22;20539;-87
2020/12/08 08:11:19;;;;;;;24.80;18.60;;;6.00;99.90;;;;;;5094015;28;20210;-86
2020/12/08 08:13:47;;;;;;;20.67;17.25;;;6.00;99.90;;;;;;5106596;28;20228;-87
2020/12/08 08:16:16;;;;;;;24.77;19.75;;;5.90;99.90;;;;;;5108309;28;20206;-86
2020/12/08 08:18:43;;;;;;;20.60;18.40;;;5.80;99.90;;;;;;5107110;28;20267;-86
2020/12/08 08:21:12;;;;;;;20.77;18.58;;;5.90;99.90;;;;;;5105974;28;20207;-86
2020/12/08 08:23:40;;;;;;;19.58;17.48;;;5.90;99.90;;;;;;5096231;28;20213;-85
2020/12/08 08:26:09;;;;;;;22.65;18.73;;;5.80;99.90;;;;;;5096531;28;20213;-85
2020/12/08 08:28:38;;;;;;;23.55;19.02;;;5.90;99.90;;;;;;5095987;28;20230;-87
2020/12/08 08:31:06;;;;;;;19.58;17.00;;;6.00;99.90;;;;;;5095761;28;20210;-86
2020/12/08 08:33:33;;;;;;;30.38;25.23;;;6.10;99.90;;;;;;5096162;28;20194;-85
2020/12/08 08:36:00;;;;;;;19.80;17.45;;;6.10;99.90;;;;;;5096066;28;20191;-85
2020/12/08 08:38:28;;;;;;;22.77;17.80;;;6.10;99.90;;;;;;5095682;28;20223;-86
2020/12/08 08:40:58;;;;;;;18.55;16.60;;;6.20;99.90;;;;;;5094605;28;20206;-87
2020/12/08 08:43:27;;;;;;;21.02;18.65;;;6.20;99.90;;;;;;5081948;28;20215;-87
2020/12/08 08:45:55;;;;;;;22.75;17.27;;;6.30;99.90;;;;;;5081535;28;20578;-86
2020/12/08 08:48:22;;;;;;;20.73;17.05;;;6.40;99.90;;;;;;5084296;28;20226;-86
2020/12/08 08:50:50;;;;;;;17.90;16.00;;;6.40;99.90;;;;;;5082421;28;20211;-85
2020/12/08 08:53:17;;;;;;;18.52;16.10;;;6.50;99.90;;;;;;5087956;28;20196;-85
2020/12/08 08:55:44;;;;;;;19.90;17.52;;;6.60;99.90;;;;;;5088273;28;20208;-87
2020/12/08 08:58:12;;;;;;;20.02;17.48;;;6.60;99.90;;;;;;5088289;28;20243;-86
2020/12/08 09:00:42;;;;;;;21.83;18.77;;;6.60;99.90;;;;;;5089267;28;20267;-86
2020/12/08 09:03:09;;;;;;;19.40;16.52;;;6.60;99.90;;;;;;5090384;28;20212;-86
2020/12/08 09:05:36;;;;;;;18.65;16.65;;;6.70;99.90;;;;;;5089509;28;20221;-86
2020/12/08 09:08:03;;;;;;;17.70;15.90;;;6.60;99.90;;;;;;5091159;28;20220;-86
2020/12/08 09:10:30;;;;;;;18.15;16.10;;;6.60;99.90;;;;;;5094818;28;20234;-88
2020/12/08 09:12:57;;;;;;;15.82;13.95;;;6.70;99.90;;;;;;5096159;28;20367;-87
2020/12/08 09:15:27;;;;;;;18.80;16.75;;;6.80;99.90;;;;;;5093071;28;20209;-86
2020/12/08 09:17:53;;;;;;;20.00;17.13;;;6.90;99.90;;;;;;5086961;28;20223;-85
2020/12/08 09:20:21;;;;;;;21.65;16.50;;;6.90;99.90;;;;;;5084269;28;20224;-86
2020/12/08 09:22:49;;;;;;;16.67;14.98;;;6.90;99.90;;;;;;5098553;28;20191;-86
2020/12/08 09:25:17;;;;;;;20.92;15.93;;;6.90;99.90;;;;;;5089732;28;20238;-87
2020/12/08 09:27:47;;;;;;;22.23;16.90;;;6.80;99.90;;;;;;5083021;28;20525;-87
2020/12/08 09:30:14;;;;;;;21.13;17.02;;;6.80;99.90;;;;;;5083103;28;20694;-86
2020/12/08 09:32:46;;;;;;;18.30;15.93;;;6.80;99.90;;;;;;5083964;28;20363;-87
2020/12/08 09:35:13;;;;;;;15.55;13.95;;;6.80;99.90;;;;;;5084460;28;20204;-86
2020/12/08 09:37:40;;;;;;;20.48;15.15;;;6.70;99.90;;;;;;5088864;28;20250;-87
2020/12/08 09:40:13;;;;;;;16.88;14.20;;;6.70;99.90;;;;;;5086835;28;20266;-86
2020/12/08 09:42:44;;;;;;;20.65;17.35;;;6.70;99.90;;;;;;5085871;28;20564;-86
2020/12/08 09:45:12;;;;;;;19.77;16.15;;;6.60;99.90;;;;;;5086036;28;20222;-87
2020/12/08 09:47:39;;;;;;;17.77;15.60;;;6.60;99.90;;;;;;5085476;28;20354;-86
2020/12/08 09:50:11;;;;;;;18.35;16.30;;;6.60;99.90;;;;;;5083913;28;20240;-86
2020/12/08 09:52:39;;;;;;;20.75;17.05;;;6.60;99.90;;;;;;5083136;28;20678;-86
2020/12/08 09:55:07;;;;;;;19.02;16.80;;;6.60;99.90;;;;;;5086102;28;20207;-86
2020/12/08 09:57:34;;;;;;;18.67;15.25;;;6.60;99.90;;;;;;5091342;28;20227;-85
2020/12/08 10:00:02;;;;;;;17.90;15.25;;;6.60;99.90;;;;;;5090475;28;20266;-87
2020/12/08 10:02:33;;;;;;;18.85;15.85;;;6.60;99.90;;;;;;5077738;28;20217;-86
2020/12/08 10:05:00;;;;;;;18.00;16.10;;;6.70;99.90;;;;;;5096313;28;20208;-86
2020/12/08 10:07:28;;;;;;;23.63;15.60;;;6.70;99.90;;;;;;5095620;28;20564;-87
2020/12/08 10:09:55;;;;;;;20.83;17.38;;;6.70;99.90;;;;;;5095526;28;20269;-86
2020/12/08 10:12:24;;;;;;;19.20;16.48;;;6.50;99.90;;;;;;5095805;28;20190;-88
2020/12/08 10:14:52;;;;;;;17.88;14.80;;;6.70;99.90;;;;;;5095426;28;20237;-86
2020/12/08 10:17:18;;;;;;;19.55;16.83;;;6.80;99.90;;;;;;5096037;28;20208;-86
2020/12/08 10:19:48;;;;;;;21.88;15.07;;;6.80;99.90;;;;;;5090833;28;20293;-87
2020/12/08 10:22:14;;;;;;;22.73;17.50;;;6.80;99.90;;;;;;5087511;28;20249;-85
2020/12/08 10:24:43;;;;;;;17.70;15.90;;;6.80;99.90;;;;;;5086526;28;20251;-86
2020/12/08 10:27:10;;;;;;;20.02;16.55;;;6.80;99.90;;;;;;5085363;28;20229;-87
2020/12/08 10:29:37;;;;;;;20.10;15.43;;;6.80;99.90;;;;;;5094737;28;20228;-85
2020/12/08 10:32:04;;;;;;;23.35;16.65;;;6.80;99.90;;;;;;5098214;28;20188;-85
2020/12/08 10:34:31;;;;;;;22.60;18.45;;;6.90;99.90;;;;;;5097791;28;20199;-86
2020/12/08 10:36:59;;;;;;;22.85;18.38;;;6.90;99.90;;;;;;5097621;28;20217;-85
2020/12/08 10:39:26;;;;;;;20.77;17.17;;;6.90;99.90;;;;;;5097981;28;20220;-84
2020/12/08 10:41:56;;;;;;;19.58;16.33;;;7.00;99.90;;;;;;5097475;28;20230;-86
2020/12/08 10:44:42;;;;;;;19.67;16.75;;;7.10;99.90;;;;;;5097817;28;20186;-85
2020/12/08 10:47:12;;;;;;;20.63;17.55;;;7.30;99.90;;;;;;5097722;28;20203;-86
2020/12/08 10:49:39;;;;;;;20.33;17.13;;;7.30;99.90;;;;;;5097049;28;20219;-87
2020/12/08 10:52:06;;;;;;;25.10;19.00;;;7.30;99.90;;;;;;5084226;28;20316;-86
2020/12/08 10:54:32;;;;;;;23.73;19.50;;;7.30;99.90;;;;;;5080355;28;20647;-87
2020/12/08 10:57:01;;;;;;;16.48;14.57;;;7.40;99.90;;;;;;5080912;28;20639;-85
2020/12/08 10:59:28;;;;;;;19.00;15.75;;;7.50;99.90;;;;;;5082953;28;20240;-87
2020/12/08 11:02:13;;;;;;;18.92;15.45;;;7.60;99.90;;;;;;5063948;28;20209;-87
2020/12/08 11:04:40;;;;;;;20.98;18.40;;;7.80;99.90;;;;;;5080603;28;20685;-85
2020/12/08 11:07:07;;;;;;;18.52;16.55;;;7.70;99.90;;;;;;5080565;28;20209;-86
2020/12/08 11:09:34;;;;;;;20.45;18.20;;;7.70;99.90;;;;;;5081934;28;20318;-85
2020/12/08 11:12:03;;;;;;;18.17;15.98;;;7.80;99.90;;;;;;5088431;28;20213;-87
2020/12/08 11:14:30;;;;;;;20.10;16.95;;;7.90;99.90;;;;;;5081918;28;20565;-87
2020/12/08 11:16:59;;;;;;;23.50;16.50;;;8.00;99.90;;;;;;5085534;28;20234;-87
2020/12/08 11:19:26;;;;;;;21.83;17.98;;;8.00;99.90;;;;;;5094240;28;20222;-86
2020/12/08 11:21:54;;;;;;;20.30;16.83;;;8.00;99.90;;;;;;5096540;28;20209;-87
2020/12/08 11:24:21;;;;;;;21.83;16.90;;;7.90;99.90;;;;;;5096347;28;20201;-85
2020/12/08 11:26:48;;;;;;;15.77;13.95;;;8.10;99.90;;;;;;5096566;28;20189;-87
2020/12/08 11:29:17;;;;;;;19.85;17.45;;;8.20;99.90;;;;;;5096666;28;20208;-87
2020/12/08 11:31:45;;;;;;;21.00;16.80;;;8.30;99.90;;;;;;5096348;28;20197;-86
2020/12/08 11:34:12;;;;;;;18.77;16.48;;;8.40;99.90;;;;;;5096667;28;20204;-85
2020/12/08 11:36:40;;;;;;;17.60;15.55;;;8.40;99.90;;;;;;5096551;28;20223;-85
2020/12/08 11:39:07;;;;;;;19.70;16.23;;;8.40;99.90;;;;;;5095994;28;20247;-85
2020/12/08 11:41:34;;;;;;;19.38;16.17;;;8.30;99.90;;;;;;5096462;28;20189;-86
2020/12/08 11:44:01;;;;;;;19.15;15.68;;;8.20;99.90;;;;;;5091931;28;20247;-88
2020/12/08 11:46:32;;;;;;;21.10;16.33;;;8.10;99.90;;;;;;5073816;28;20216;-86
2020/12/08 11:49:02;;;;;;;17.55;14.30;;;8.00;99.90;;;;;;5075749;28;20214;-86
2020/12/08 11:51:29;;;;;;;17.77;15.32;;;8.00;99.90;;;;;;5059499;28;20265;-87
2020/12/08 11:53:58;;;;;;;20.98;15.15;;;8.00;99.90;;;;;;5076551;28;20183;-86
2020/12/08 11:56:25;;;;;;;17.83;14.93;;;8.00;99.90;;;;;;5091894;28;20184;-86
2020/12/08 11:58:52;;;;;;;17.52;14.45;;;8.00;99.90;;;;;;5096226;28;20239;-85
2020/12/08 12:01:19;;;;;;;17.02;15.23;;;8.10;99.90;;;;;;5092532;28;20209;-86
2020/12/08 12:03:59;;;;;;;17.70;14.95;;;8.10;99.90;;;;;;5092279;28;20205;-86
2020/12/08 12:06:27;;;;;;;18.40;16.10;;;8.00;99.90;;;;;;5089120;28;20693;-86
2020/12/08 12:08:55;;;;;;;16.95;15.00;;;8.00;99.90;;;;;;5084298;28;20229;-87
2020/12/08 12:11:22;;;;;;;16.45;14.00;;;8.00;99.90;;;;;;5065385;28;20224;-87
2020/12/08 12:13:49;;;;;;;16.92;14.15;;;7.90;99.90;;;;;;5084394;28;20205;-85
2020/12/08 12:16:20;;;;;;;26.13;15.70;;;7.90;99.90;;;;;;5086198;28;20204;-87
2020/12/08 12:18:47;;;;;;;18.05;15.27;;;7.90;99.90;;;;;;5082214;28;20355;-87
2020/12/08 12:21:15;;;;;;;19.88;16.10;;;7.90;99.90;;;;;;5082511;28;20206;-87
2020/12/08 12:23:43;;;;;;;15.20;13.60;;;8.00;99.90;;;;;;5093649;28;20244;-86
2020/12/08 12:26:10;;;;;;;25.63;21.65;;;8.10;99.90;;;;;;5095446;28;20213;-87
2020/12/08 12:28:44;;;;;;;17.52;15.65;;;8.00;99.90;;;;;;5095683;28;20232;-86
2020/12/08 12:31:11;;;;;;;16.33;14.13;;;8.00;99.90;;;;;;5095899;28;20184;-86
2020/12/08 12:33:38;;;;;;;18.10;14.70;;;8.00;99.90;;;;;;5095546;28;20220;-86
2020/12/08 12:36:06;;;;;;;16.98;14.88;;;8.00;99.90;;;;;;5095058;28;20202;-86
2020/12/08 12:38:34;;;;;;;15.88;12.90;;;8.00;99.90;;;;;;5095240;28;20236;-86
2020/12/08 12:41:00;;;;;;;21.35;17.25;;;8.00;99.90;;;;;;5094899;28;20206;-86
2020/12/08 12:43:27;;;;;;;21.13;17.38;;;7.90;99.90;;;;;;5098679;28;20194;-85
2020/12/08 12:45:54;;;;;;;18.27;13.70;;;7.90;99.90;;;;;;5099342;28;20224;-86
2020/12/08 12:48:23;;;;;;;15.43;12.77;;;8.00;99.90;;;;;;5095456;28;20226;-88